Time,TemperatureF,DewpointF,PressureIn,WindDirection,WindDirectionDegrees,WindSpeedMPH,WindSpeedGustMPH,Humidity,HourlyPrecipIn,Conditions,Clouds,dailyrainin,SoftwareType,DateUTC
2013-02-21 00:02:00,28.0,16.0,30.06,NNE,32,0.0,-999.0,59,-99.99,,,-99.99,,2013-02-21 05:02:00,
2013-02-21 00:12:00,28.0,16.0,30.06,NNE,32,0.0,-999.0,59,-99.99,,,-99.99,,2013-02-21 05:12:00,
2013-02-21 00:22:00,28.0,15.0,30.06,NNE,32,0.0,-999.0,57,-99.99,,,-99.99,,2013-02-21 05:22:00,
2013-02-21 00:35:00,28.0,14.0,30.05,NNE,32,0.0,-999.0,56,-99.99,,,-99.99,,2013-02-21 05:35:00,
2013-02-21 00:45:00,28.0,14.0,30.05,NNE,32,0.0,-999.0,56,-99.99,,,-99.99,,2013-02-21 05:45:00,
2013-02-21 01:00:00,28.0,14.0,30.05,NNE,32,0.0,-999.0,55,-99.99,,,-99.99,,2013-02-21 06:00:00,
2013-02-21 01:11:00,28.0,15.0,30.06,NNE,32,0.0,-999.0,57,-99.99,,,-99.99,,2013-02-21 06:11:00,
2013-02-21 01:21:00,28.0,15.0,30.05,NNE,32,0.0,-999.0,57,-99.99,,,-99.99,,2013-02-21 06:21:00,
2013-02-21 01:31:00,28.0,16.0,30.06,NNE,32,0.0,-999.0,61,-99.99,,,-99.99,,2013-02-21 06:31:00,
2013-02-21 01:41:00,28.0,16.0,30.06,NNE,32,0.0,-999.0,61,-99.99,,,-99.99,,2013-02-21 06:41:00,
2013-02-21 01:52:00,29.0,18.0,30.06,NNE,32,0.0,-999.0,64,-99.99,,,-99.99,,2013-02-21 06:52:00,
2013-02-21 02:01:00,29.0,18.0,30.04,NNE,32,0.0,-999.0,62,-99.99,,,-99.99,,2013-02-21 07:01:00,
2013-02-21 02:11:00,29.0,19.0,30.05,NNE,32,0.0,-999.0,65,-99.99,,,-99.99,,2013-02-21 07:11:00,
2013-02-21 02:21:00,29.0,19.0,30.05,NNE,32,0.0,-999.0,65,-99.99,,,-99.99,,2013-02-21 07:21:00,
2013-02-21 02:32:00,28.0,18.0,30.05,NNE,32,0.0,-999.0,65,-99.99,,,-99.99,,2013-02-21 07:32:00,
2013-02-21 02:42:00,28.0,17.0,30.06,NNE,32,0.0,-999.0,63,-99.99,,,-99.99,,2013-02-21 07:42:00,
2013-02-21 02:52:00,28.0,17.0,30.06,NNE,32,0.0,-999.0,63,-99.99,,,-99.99,,2013-02-21 07:52:00,
2013-02-21 03:01:00,28.0,17.0,30.05,NNE,32,0.0,-999.0,63,-99.99,,,-99.99,,2013-02-21 08:01:00,
2013-02-21 03:11:00,28.0,18.0,30.05,NNE,32,0.0,-999.0,65,-99.99,,,-99.99,,2013-02-21 08:11:00,
2013-02-21 03:21:00,28.0,18.0,30.05,NNE,32,0.0,-999.0,65,-99.99,,,-99.99,,2013-02-21 08:21:00,
2013-02-21 03:32:00,28.0,17.0,30.05,NNE,32,0.0,-999.0,63,-99.99,,,-99.99,,2013-02-21 08:32:00,
2013-02-21 03:42:00,28.0,17.0,30.05,NNE,32,0.0,-999.0,63,-99.99,,,-99.99,,2013-02-21 08:42:00,
2013-02-21 03:52:00,27.0,16.0,30.05,NNE,32,0.0,-999.0,62,-99.99,,,-99.99,,2013-02-21 08:52:00,
2013-02-21 04:01:00,27.0,15.0,30.06,NNE,32,0.0,-999.0,60,-99.99,,,-99.99,,2013-02-21 09:01:00,
2013-02-21 04:11:00,27.0,15.0,30.06,NNE,32,0.0,-999.0,60,-99.99,,,-99.99,,2013-02-21 09:11:00,
2013-02-21 04:22:00,27.0,16.0,30.03,NNE,32,0.0,-999.0,62,-99.99,,,-99.99,,2013-02-21 09:22:00,
2013-02-21 04:32:00,27.0,17.0,30.03,NNE,32,0.0,-999.0,66,-99.99,,,-99.99,,2013-02-21 09:32:00,
2013-02-21 04:42:00,27.0,17.0,30.03,NNE,32,0.0,-999.0,66,-99.99,,,-99.99,,2013-02-21 09:42:00,
2013-02-21 04:52:00,28.0,18.0,30.03,NNE,32,0.0,-999.0,67,-99.99,,,-99.99,,2013-02-21 09:52:00,
2013-02-21 05:01:00,28.0,19.0,30.02,NNE,32,0.0,-999.0,68,-99.99,,,-99.99,,2013-02-21 10:01:00,
2013-02-21 05:11:00,28.0,19.0,30.02,NNE,32,0.0,-999.0,68,-99.99,,,-99.99,,2013-02-21 10:11:00,
2013-02-21 05:21:00,28.0,17.0,30.03,NNE,32,0.0,-999.0,64,-99.99,,,-99.99,,2013-02-21 10:21:00,
2013-02-21 05:31:00,28.0,18.0,30.03,NNE,32,0.0,-999.0,65,-99.99,,,-99.99,,2013-02-21 10:31:00,
2013-02-21 05:41:00,28.0,18.0,30.03,NNE,32,0.0,-999.0,65,-99.99,,,-99.99,,2013-02-21 10:41:00,
2013-02-21 05:51:00,28.0,17.0,30.03,NNE,32,0.0,-999.0,63,-99.99,,,-99.99,,2013-02-21 10:51:00,
2013-02-21 06:01:00,27.0,16.0,30.04,NNE,32,0.0,-999.0,63,-99.99,,,-99.99,,2013-02-21 11:01:00,
2013-02-21 06:11:00,27.0,16.0,30.04,NNE,32,0.0,-999.0,63,-99.99,,,-99.99,,2013-02-21 11:11:00,
2013-02-21 06:21:00,27.0,15.0,30.04,NNE,32,0.0,-999.0,61,-99.99,,,-99.99,,2013-02-21 11:21:00,
2013-02-21 06:31:00,27.0,16.0,30.04,NNE,32,0.0,-999.0,64,-99.99,,,-99.99,,2013-02-21 11:31:00,
2013-02-21 06:41:00,27.0,16.0,30.04,NNE,32,0.0,-999.0,64,-99.99,,,-99.99,,2013-02-21 11:41:00,
2013-02-21 06:52:00,27.0,15.0,30.04,NNE,32,0.0,-999.0,60,-99.99,,,-99.99,,2013-02-21 11:52:00,
2013-02-21 07:01:00,27.0,15.0,30.04,NNE,32,0.0,-999.0,61,-99.99,,,-99.99,,2013-02-21 12:01:00,
2013-02-21 07:11:00,27.0,15.0,30.04,NNE,32,0.0,-999.0,61,-99.99,,,-99.99,,2013-02-21 12:11:00,
2013-02-21 07:21:00,27.0,15.0,30.04,NNE,32,0.0,-999.0,60,-99.99,,,-99.99,,2013-02-21 12:21:00,
2013-02-21 07:32:00,27.0,16.0,30.05,NNE,32,0.0,-999.0,62,-99.99,,,-99.99,,2013-02-21 12:32:00,
2013-02-21 07:42:00,27.0,15.0,30.06,NNE,32,0.0,-999.0,61,-99.99,,,-99.99,,2013-02-21 12:42:00,
2013-02-21 07:53:00,27.0,15.0,30.06,NNE,32,0.0,-999.0,61,-99.99,,,-99.99,,2013-02-21 12:53:00,
2013-02-21 08:02:00,27.0,16.0,30.06,NNE,32,0.0,-999.0,62,-99.99,,,-99.99,,2013-02-21 13:02:00,
2013-02-21 08:12:00,27.0,16.0,30.06,NNE,32,0.0,-999.0,62,-99.99,,,-99.99,,2013-02-21 13:12:00,
2013-02-21 08:22:00,27.0,16.0,30.07,NNE,32,0.0,-999.0,64,-99.99,,,-99.99,,2013-02-21 13:22:00,
2013-02-21 08:32:00,27.0,13.0,30.06,NNE,32,0.0,-999.0,56,-99.99,,,-99.99,,2013-02-21 13:32:00,
2013-02-21 08:42:00,27.0,13.0,30.06,NNE,32,0.0,-999.0,56,-99.99,,,-99.99,,2013-02-21 13:42:00,
2013-02-21 08:52:00,28.0,15.0,30.07,NNE,32,0.0,-999.0,58,-99.99,,,-99.99,,2013-02-21 13:52:00,
2013-02-21 09:02:00,29.0,14.0,30.07,NNE,32,0.0,-999.0,54,-99.99,,,-99.99,,2013-02-21 14:02:00,
2013-02-21 09:11:00,29.0,14.0,30.07,NNE,32,0.0,-999.0,54,-99.99,,,-99.99,,2013-02-21 14:11:00,
2013-02-21 09:22:00,30.0,17.0,30.08,NNE,32,0.0,-999.0,57,-99.99,,,-99.99,,2013-02-21 14:22:00,
2013-02-21 09:32:00,32.0,16.0,30.08,NNE,32,0.0,-999.0,52,-99.99,,,-99.99,,2013-02-21 14:32:00,
2013-02-21 09:42:00,32.0,16.0,30.08,NNE,32,0.0,-999.0,52,-99.99,,,-99.99,,2013-02-21 14:42:00,
2013-02-21 09:52:00,33.0,16.0,30.07,NNE,32,0.0,-999.0,50,-99.99,,,-99.99,,2013-02-21 14:52:00,
2013-02-21 10:02:00,35.0,20.0,30.08,NNE,32,0.0,-999.0,55,-99.99,,,-99.99,,2013-02-21 15:02:00,
2013-02-21 10:12:00,35.0,20.0,30.08,NNE,32,0.0,-999.0,55,-99.99,,,-99.99,,2013-02-21 15:12:00,
2013-02-21 10:21:00,36.0,20.0,30.07,NNE,32,0.0,-999.0,51,-99.99,,,-99.99,,2013-02-21 15:21:00,
2013-02-21 10:32:00,38.0,15.0,30.06,NNE,32,0.0,-999.0,38,-99.99,,,-99.99,,2013-02-21 15:32:00,
2013-02-21 10:42:00,38.0,15.0,30.06,NNE,32,0.0,-999.0,38,-99.99,,,-99.99,,2013-02-21 15:42:00,
2013-02-21 10:52:00,40.0,10.0,30.06,NNE,32,0.0,-999.0,29,-99.99,,,-99.99,,2013-02-21 15:52:00,
2013-02-21 11:01:00,43.0,19.0,30.09,NNE,32,0.0,-999.0,38,-99.99,,,-99.99,,2013-02-21 16:01:00,
2013-02-21 11:12:00,45.0,19.0,30.08,North,355,0.0,-999.0,35,-99.99,,,-99.99,,2013-02-21 16:12:00,
2013-02-21 11:22:00,45.0,19.0,30.08,North,355,0.0,-999.0,35,-99.99,,,-99.99,,2013-02-21 16:22:00,
2013-02-21 11:32:00,48.0,19.0,30.07,West,267,1.0,-999.0,31,-99.99,,,-99.99,,2013-02-21 16:32:00,
2013-02-21 11:42:00,49.0,17.0,30.07,North,355,0.0,-999.0,28,-99.99,,,-99.99,,2013-02-21 16:42:00,
2013-02-21 11:52:00,49.0,17.0,30.07,North,355,0.0,-999.0,28,-99.99,,,-99.99,,2013-02-21 16:52:00,
2013-02-21 12:01:00,52.0,19.0,30.05,WNW,291,0.0,-999.0,27,-99.99,,,-99.99,,2013-02-21 17:01:00,
2013-02-21 12:11:00,54.0,21.0,30.05,NW,309,0.0,-999.0,27,-99.99,,,-99.99,,2013-02-21 17:11:00,
2013-02-21 12:21:00,54.0,21.0,30.05,NW,309,0.0,-999.0,27,-99.99,,,-99.99,,2013-02-21 17:21:00,
2013-02-21 12:32:00,56.0,23.0,30.03,NNW,344,0.0,-999.0,27,-99.99,,,-99.99,,2013-02-21 17:32:00,
2013-02-21 12:42:00,56.0,23.0,30.03,NNW,344,0.0,-999.0,27,-99.99,,,-99.99,,2013-02-21 17:42:00,
2013-02-21 12:52:00,57.0,22.0,30.03,NW,313,1.0,-999.0,26,-99.99,,,-99.99,,2013-02-21 17:52:00,
2013-02-21 13:02:00,58.0,20.0,30.01,NNW,336,1.0,-999.0,23,-99.99,,,-99.99,,2013-02-21 18:02:00,
2013-02-21 13:12:00,58.0,20.0,30.01,NNW,336,1.0,-999.0,23,-99.99,,,-99.99,,2013-02-21 18:12:00,
2013-02-21 13:22:00,59.0,21.0,30.01,West,262,1.0,-999.0,23,-99.99,,,-99.99,,2013-02-21 18:22:00,
2013-02-21 13:32:00,60.0,20.0,29.99,North,360,1.0,-999.0,21,-99.99,,,-99.99,,2013-02-21 18:32:00,
2013-02-21 13:42:00,60.0,20.0,29.99,North,360,1.0,-999.0,21,-99.99,,,-99.99,,2013-02-21 18:42:00,
2013-02-21 13:52:00,61.0,22.0,29.98,West,268,0.0,-999.0,22,-99.99,,,-99.99,,2013-02-21 18:52:00,
2013-02-21 14:01:00,62.0,23.0,29.98,North,355,0.0,-999.0,22,-99.99,,,-99.99,,2013-02-21 19:01:00,
2013-02-21 14:12:00,62.0,23.0,29.98,North,355,0.0,-999.0,22,-99.99,,,-99.99,,2013-02-21 19:12:00,
2013-02-21 14:21:00,63.0,24.0,29.98,SW,224,1.0,-999.0,22,-99.99,,,-99.99,,2013-02-21 19:21:00,
2013-02-21 14:32:00,63.0,24.0,29.98,WSW,240,1.0,-999.0,22,-99.99,,,-99.99,,2013-02-21 19:32:00,
2013-02-21 14:42:00,63.0,24.0,29.98,WSW,240,1.0,-999.0,22,-99.99,,,-99.99,,2013-02-21 19:42:00,
2013-02-21 14:52:00,62.0,23.0,29.98,WSW,257,2.0,-999.0,22,-99.99,,,-99.99,,2013-02-21 19:52:00,
2013-02-21 15:01:00,62.0,25.0,29.97,SW,221,1.0,-999.0,24,-99.99,,,-99.99,,2013-02-21 20:01:00,
2013-02-21 15:11:00,62.0,23.0,29.97,WSW,254,2.0,-999.0,22,-99.99,,,-99.99,,2013-02-21 20:11:00,
2013-02-21 15:21:00,62.0,23.0,29.97,WSW,254,2.0,-999.0,22,-99.99,,,-99.99,,2013-02-21 20:21:00,
2013-02-21 15:32:00,61.0,23.0,29.97,WNW,286,2.0,-999.0,23,-99.99,,,-99.99,,2013-02-21 20:32:00,
2013-02-21 15:42:00,61.0,23.0,29.97,WNW,286,2.0,-999.0,23,-99.99,,,-99.99,,2013-02-21 20:42:00,
2013-02-21 15:53:00,60.0,22.0,29.96,WSW,237,1.0,-999.0,23,-99.99,,,-99.99,,2013-02-21 20:53:00,
2013-02-21 16:02:00,60.0,23.0,29.96,SW,223,2.0,-999.0,24,-99.99,,,-99.99,,2013-02-21 21:02:00,
2013-02-21 16:12:00,60.0,25.0,29.96,ENE,57,2.0,-999.0,26,-99.99,,,-99.99,,2013-02-21 21:12:00,
2013-02-21 16:22:00,60.0,25.0,29.96,ENE,57,2.0,-999.0,26,-99.99,,,-99.99,,2013-02-21 21:22:00,
2013-02-21 16:32:00,60.0,26.0,29.96,North,360,2.0,-999.0,27,-99.99,,,-99.99,,2013-02-21 21:32:00,
2013-02-21 16:42:00,59.0,26.0,29.93,NE,42,2.0,-999.0,28,-99.99,,,-99.99,,2013-02-21 21:42:00,
2013-02-21 16:52:00,59.0,26.0,29.93,NE,42,2.0,-999.0,28,-99.99,,,-99.99,,2013-02-21 21:52:00,
2013-02-21 17:01:00,59.0,26.0,29.93,SSE,152,1.0,-999.0,28,-99.99,,,-99.99,,2013-02-21 22:01:00,
2013-02-21 17:11:00,59.0,26.0,29.93,SSE,152,1.0,-999.0,28,-99.99,,,-99.99,,2013-02-21 22:11:00,
2013-02-21 17:21:00,59.0,25.0,29.92,West,272,1.0,-999.0,27,-99.99,,,-99.99,,2013-02-21 22:21:00,
2013-02-21 17:32:00,58.0,25.0,29.91,West,261,1.0,-999.0,28,-99.99,,,-99.99,,2013-02-21 22:32:00,
2013-02-21 17:42:00,58.0,25.0,29.91,West,261,1.0,-999.0,28,-99.99,,,-99.99,,2013-02-21 22:42:00,
2013-02-21 17:52:00,57.0,25.0,29.91,WNW,288,1.0,-999.0,29,-99.99,,,-99.99,,2013-02-21 22:52:00,
2013-02-21 18:01:00,56.0,25.0,29.91,SW,233,1.0,-999.0,30,-99.99,,,-99.99,,2013-02-21 23:01:00,
2013-02-21 18:11:00,56.0,25.0,29.91,SW,233,1.0,-999.0,30,-99.99,,,-99.99,,2013-02-21 23:11:00,
2013-02-21 18:21:00,56.0,25.0,29.91,East,86,2.0,-999.0,30,-99.99,,,-99.99,,2013-02-21 23:21:00,
2013-02-21 18:32:00,55.0,24.0,29.88,SSE,159,2.0,-999.0,30,-99.99,,,-99.99,,2013-02-21 23:32:00,
2013-02-21 18:42:00,55.0,24.0,29.88,SSE,159,2.0,-999.0,30,-99.99,,,-99.99,,2013-02-21 23:42:00,
2013-02-21 18:52:00,54.0,24.0,29.88,West,267,1.0,-999.0,31,-99.99,,,-99.99,,2013-02-21 23:52:00,
2013-02-21 19:01:00,54.0,25.0,29.96,NW,304,1.0,-999.0,32,-99.99,,,-99.99,,2013-02-22 00:01:00,
2013-02-21 19:11:00,54.0,25.0,29.96,NW,304,1.0,-999.0,32,-99.99,,,-99.99,,2013-02-22 00:11:00,
2013-02-21 19:22:00,54.0,28.0,29.96,NE,50,0.0,-999.0,36,-99.99,,,-99.99,,2013-02-22 00:22:00,
2013-02-21 19:32:00,53.0,28.0,29.98,ENE,74,1.0,-999.0,38,-99.99,,,-99.99,,2013-02-22 00:32:00,
2013-02-21 19:42:00,53.0,28.0,29.98,ENE,74,1.0,-999.0,38,-99.99,,,-99.99,,2013-02-22 00:42:00,
2013-02-21 19:52:00,51.0,41.0,30.02,ENE,74,0.0,-999.0,69,-99.99,,,-99.99,,2013-02-22 00:52:00,
2013-02-21 20:01:00,47.0,41.0,30.02,ENE,74,0.0,-999.0,81,-99.99,,,-99.99,,2013-02-22 01:01:00,
2013-02-21 20:22:00,45.0,42.0,30.01,ENE,74,0.0,-999.0,88,-99.99,,,-99.99,,2013-02-22 01:22:00,
2013-02-21 20:32:00,43.0,40.0,30.00,WSW,245,1.0,-999.0,90,-99.99,,,-99.99,,2013-02-22 01:32:00,
2013-02-21 20:42:00,43.0,40.0,30.00,WSW,245,1.0,-999.0,90,-99.99,,,-99.99,,2013-02-22 01:42:00,
2013-02-21 20:52:00,43.0,41.0,29.99,North,355,0.0,-999.0,93,-99.99,,,-99.99,,2013-02-22 01:52:00,
2013-02-21 21:02:00,43.0,40.0,29.99,WNW,284,2.0,-999.0,88,-99.99,,,-99.99,,2013-02-22 02:02:00,
2013-02-21 21:11:00,43.0,40.0,29.99,WNW,284,2.0,-999.0,88,-99.99,,,-99.99,,2013-02-22 02:11:00,
2013-02-21 21:21:00,43.0,38.0,29.99,SSE,163,4.0,-999.0,84,-99.99,,,-99.99,,2013-02-22 02:21:00,
2013-02-21 21:32:00,44.0,39.0,29.97,WNW,284,4.0,-999.0,83,-99.99,,,-99.99,,2013-02-22 02:32:00,
2013-02-21 21:42:00,44.0,40.0,29.99,WSW,251,2.0,-999.0,87,-99.99,,,-99.99,,2013-02-22 02:42:00,
2013-02-21 21:52:00,44.0,40.0,29.99,WSW,251,2.0,-999.0,87,-99.99,,,-99.99,,2013-02-22 02:52:00,
2013-02-21 22:02:00,44.0,40.0,30.01,SE,126,5.0,-999.0,85,-99.99,,,-99.99,,2013-02-22 03:02:00,
2013-02-21 22:11:00,44.0,40.0,30.01,SE,126,5.0,-999.0,85,-99.99,,,-99.99,,2013-02-22 03:11:00,
2013-02-21 22:21:00,43.0,40.0,30.02,NNE,24,2.0,-999.0,90,-99.99,,,-99.99,,2013-02-22 03:21:00,
2013-02-21 22:32:00,42.0,40.0,30.03,NW,319,0.0,-999.0,91,-99.99,,,-99.99,,2013-02-22 03:32:00,
2013-02-21 22:42:00,42.0,40.0,30.03,NW,319,0.0,-999.0,91,-99.99,,,-99.99,,2013-02-22 03:42:00,
2013-02-21 22:52:00,42.0,40.0,30.04,NW,319,0.0,-999.0,93,-99.99,,,-99.99,,2013-02-22 03:52:00,
2013-02-21 23:02:00,41.0,39.0,30.03,NW,319,0.0,-999.0,94,-99.99,,,-99.99,,2013-02-22 04:02:00,
2013-02-21 23:11:00,41.0,40.0,30.04,NW,319,0.0,-999.0,95,-99.99,,,-99.99,,2013-02-22 04:11:00,
2013-02-21 23:21:00,41.0,40.0,30.04,NW,319,0.0,-999.0,95,-99.99,,,-99.99,,2013-02-22 04:21:00,
2013-02-21 23:32:00,41.0,40.0,30.09,North,5,0.0,-999.0,95,-99.99,,,-99.99,,2013-02-22 04:32:00,
2013-02-21 23:42:00,41.0,40.0,30.09,North,5,0.0,-999.0,95,-99.99,,,-99.99,,2013-02-22 04:42:00,
2013-02-21 23:52:00,41.0,40.0,30.06,North,5,0.0,-999.0,95,-99.99,,,-99.99,,2013-02-22 04:52:00,